Flight Track Log - Related Links

Times and Time Zones

All times are in EDT time to prevent confusion due to time zone crossing. See the LAK145 flight status page for this flight to view local times or setup timezone preferences in your user account.

Time Position Orientation Groundspeed Altitude Reporting Facility
EDT Latitude Longitude Course Direction KTS MPH feet Rate Location/Type
Sat 08:01:42 PM 42.9333 -78.7333 216° Southwest 163 188 2,000  Level Buffalo TRACON
Sat 08:03:00 PM 42.8667 -78.8000 216° Southwest 246 283 6,600 2,857 Climbing Buffalo TRACON
Sat 08:04:30 PM 42.8514 -78.9172 260° West 238 274 10,000 2,026 Climbing Cleveland Center
Sat 08:05:31 PM 42.8814 -78.9958 298° West 246 283 11,700 1,820 Climbing Cleveland Center
Sat 08:06:32 PM 42.8792 -79.0858 268° West 239 275 13,700 1,574 Climbing Cleveland Center
Sat 08:07:33 PM 42.8653 -79.1736 258° West 238 274 14,900 590 Climbing Cleveland Center
Sat 08:08:34 PM 42.8494 -79.2719 258° West 263 303 14,900  Level Cleveland Center
Sat 08:09:35 PM 42.8331 -79.3686 257° West 266 306 14,900 934 Level Cleveland Center
Sat 08:10:36 PM 42.8131 -79.4872 257° West 269 310 16,800 2,607 Climbing Cleveland Center
Sat 08:11:37 PM 42.7967 -79.5831 257° West 264 304 20,200 3,098 Climbing Cleveland Center
Sat 08:12:38 PM 42.7811 -79.6769 257° West 259 298 23,100 2,705 Climbing Cleveland Center
Sat 08:13:39 PM 42.7661 -79.7731 258° West 259 298 25,700 2,311 Climbing Cleveland Center
Sat 08:14:40 PM 42.7489 -79.8728 257° West 268 308 27,800 2,164 Climbing Cleveland Center
Sat 08:15:41 PM 42.7297 -79.9817 257° West 273 314 30,100 2,164 Climbing Cleveland Center
Sat 08:16:42 PM 42.7114 -80.0786 256° West 264 304 32,200 1,805 Climbing Cleveland Center
Sat 08:17:44 PM 42.6964 -80.1753 258° West 262 302 33,800 878 Climbing Cleveland Center
Sat 08:18:45 PM 42.6789 -80.2758 257° West 269 310 34,000 98 Climbing Cleveland Center
Sat 08:19:46 PM 42.6567 -80.3892 255° West 304 350 34,000  Level Cleveland Center
Sat 08:20:47 PM 42.6164 -80.5019 244° Southwest 327 376 34,000 295 Level Cleveland Center
Sat 08:21:48 PM 42.5847 -80.6181 250° West 327 376 34,600 1,033 Climbing Cleveland Center
Sat 08:22:49 PM 42.5836 -80.7361 269° West 314 361 36,100 1,426 Climbing Cleveland Center
Sat 08:23:50 PM 42.5825 -80.8467 269° West 301 346 37,500 1,171 Climbing Cleveland Center
Sat 08:24:52 PM 42.5808 -80.9525 269° West 288 331 38,500 878 Climbing Cleveland Center
Sat 08:25:53 PM 42.5825 -81.0606 271° West 286 329 39,300 738 Climbing Cleveland Center
Sat 08:26:54 PM 42.5797 -81.1714 268° West 288 331 40,000 344 Climbing Cleveland Center
Sat 08:27:55 PM 42.5822 -81.2872 272° West 299 344 40,000  Level Cleveland Center
Sat 08:28:56 PM 42.5797 -81.4103 268° West 313 360 40,000  Level Cleveland Center
Sat 08:29:57 PM 42.5808 -81.5358 271° West 325 374 40,000  Level Cleveland Center
Sat 08:30:59 PM 42.5786 -81.6619 269° West 329 379 40,000  Level Cleveland Center
Sat 08:32:00 PM 42.5794 -81.7922 271° West 347 399 40,000  Level Cleveland Center
Sat 08:33:01 PM 42.5772 -81.9178 269° West 338 389 40,000  Level Cleveland Center
Sat 08:34:02 PM 42.5767 -82.0731 270° West 340 391 40,000  Level Cleveland Center
Sat 08:35:03 PM 42.5739 -82.2003 268° West 340 391 40,000  Level Cleveland Center
Sat 08:36:04 PM 42.5739 -82.3283 270° West 340 391 40,000  Level Cleveland Center
Sat 08:37:05 PM 42.5722 -82.4561 269° West 340 391 40,000  Level Cleveland Center
Sat 08:38:06 PM 42.5706 -82.5825 269° West 340 391 40,000  Level Cleveland Center
Sat 08:39:08 PM 42.5681 -82.7089 269° West 339 390 40,000  Level Cleveland Center
Sat 08:40:09 PM 42.5650 -82.8369 268° West 339 390 40,000 -393 Level Cleveland Center
Sat 08:41:10 PM 42.5647 -82.9656 270° West 341 392 39,200 -836 Descending Cleveland Center
Sat 08:42:11 PM 42.5606 -83.0975 268° West 349 402 38,300 -590 Descending Cleveland Center
Sat 08:43:12 PM 42.5586 -83.2522 269° West 350 403 38,000 -148 Descending Cleveland Center
Sat 08:44:13 PM 42.5547 -83.3761 268° West 335 386 38,000 -148 Level Cleveland Center
Sat 08:45:14 PM 42.5522 -83.5011 268° West 335 386 37,700 -836 Descending Cleveland Center
Sat 08:46:15 PM 42.5506 -83.6261 269° West 336 387 36,300 -1,377 Descending Cleveland Center
Sat 08:47:16 PM 42.5467 -83.7442 267° West 320 368 34,900 -1,279 Descending Cleveland Center
Sat 08:48:17 PM 42.5447 -83.8586 269° West 309 356 33,700 -1,328 Descending Cleveland Center
Sat 08:49:18 PM 42.5411 -83.9697 268° West 302 348 32,200 -836 Descending Cleveland Center
Sat 08:50:19 PM 42.5392 -84.0783 269° West 294 338 32,000 -98 Descending Cleveland Center
Sat 08:51:20 PM 42.5347 -84.2097 267° West 292 336 32,000  Level Cleveland Center
Sat 08:52:21 PM 42.5283 -84.3164 265° West 290 334 32,000  Level Cleveland Center
Sat 08:53:22 PM 42.5139 -84.4272 260° West 299 344 32,000  Level Cleveland Center
Sat 08:54:24 PM 42.5033 -84.5444 263° West 313 360 32,000 -146 Level Cleveland Center
Sat 08:55:25 PM 42.5128 -84.6636 276° West 319 367 31,700 -836 Descending Cleveland Center
Sat 08:56:26 PM 42.5186 -84.7714 274° West 303 349 30,300 -1,279 Descending Cleveland Center
Sat 08:57:27 PM 42.5269 -84.8831 276° West 298 343 29,100 -1,082 Descending Cleveland Center
Sat 08:58:28 PM 42.5314 -84.9953 273° West 300 345 28,100 -541 Descending Cleveland Center
Sat 08:59:29 PM 42.5364 -85.1125 273° West 308 354 28,000 -49 Descending Cleveland Center
Sat 09:00:30 PM 42.5397 -85.2317 272° West 315 362 28,000 -639 Level Cleveland Center
Sat 09:01:31 PM 42.5478 -85.3686 275° West 308 354 26,700 -1,180 Descending Cleveland Center
Sat 09:02:32 PM 42.5364 -85.4850 262° West 318 366 25,600 -1,082 Descending Cleveland Center
Sat 09:03:33 PM 42.5156 -85.6003 256° West 318 366 24,500 -1,082 Descending Cleveland Center
Sat 09:04:34 PM 42.5056 -85.7142 263° West 307 353 23,400 -1,131 Descending Cleveland Center
Sat 09:05:35 PM 42.4917 -85.8233 260° West 300 345 22,200 -1,131 Descending Cleveland Center
Sat 09:06:36 PM 42.4831 -85.9325 264° West 296 341 21,100 -1,131 Descending Cleveland Center
Sat 09:07:37 PM 42.4717 -86.0394 262° West 292 336 19,900 -1,279 Descending Cleveland Center
Sat 09:08:38 PM 42.4625 -86.1414 263° West 281 323 18,500 -1,328 Descending Cleveland Center
Sat 09:09:39 PM 42.4594 -86.2428 268° West 272 313 17,200 -1,338 Descending Cleveland Center
Sat 09:11:06 PM 42.4494 -86.3872 265° West 275 316 15,200 -1,378 Descending Chicago Center
Sat 09:12:07 PM 42.4453 -86.4942 267° West 283 326 13,800 -1,426 Descending Chicago Center
Sat 09:13:08 PM 42.4381 -86.6003 265° West 283 326 12,300 -1,574 Descending Chicago Center
Sat 09:14:09 PM 42.4331 -86.7308 267° West 287 330 10,600 -1,561 Descending Chicago Center
Sat 09:15:11 PM 42.4283 -86.8236 266° West 252 290 9,100 -1,415 Descending Chicago Center
Sat 09:16:12 PM 42.4206 -86.9147 263° West 247 284 7,700 -1,415 Descending Chicago Center
Sat 09:17:14 PM 42.4178 -87.0061 268° West 246 283 6,200 -1,463 Descending Chicago Center
Sat 09:18:15 PM 42.4092 -87.0917 262° West 234 269 4,700 -1,426 Descending Chicago Center
Sat 09:19:16 PM 42.4067 -87.1839 268° West 239 275 3,300 -780 Descending Chicago Center
Sat 09:20:18 PM 42.4014 -87.2769 266° West 241 277 3,100 -97 Descending Chicago Center
Sat 09:22:21 PM 42.3667 -87.4500 255° West 229 264 3,000 -35 Descending Chicago TRACON
Sat 09:23:09 PM 42.3500 -87.5167 251° West 229 264 3,000  Level Chicago TRACON
Sat 09:24:09 PM 42.3167 -87.5833 236° Southwest 225 259 3,000  Level Chicago TRACON
Sat 09:25:21 PM 42.3000 -87.6833 257° West 225 259 3,000  Level Chicago TRACON
Sat 09:26:21 PM 42.2667 -87.7667 242° Southwest 227 261 3,000  Level Chicago TRACON
Sat 09:27:15 PM 42.2500 -87.8333 251° West 211 243 3,000  Level Chicago TRACON
Sat 09:28:22 PM 42.2500 -87.9167 270° West 185 213 3,000 -236 Level Chicago TRACON
Sat 09:29:22 PM 42.2333 -87.9833 251° West 205 236 2,500 -444 Descending Chicago TRACON
Sat 09:30:10 PM 42.2000 -87.9500 143° Southeast 158 182 2,200 -389 Descending Chicago TRACON
Sat 09:31:10 PM 42.1667 -87.9333 160° South 140 161 1,800 -210 Descending Chicago TRACON
Sat 09:32:33 PM 42.1369 -87.8808 127° Southeast 132 152 1,700 -72 Descending Chicago Center

Login

Don't have an account? Register now (free) for customized features, flight alerts, and more!